createdAt,value
2023-02-11T00:01:29.041Z,38.07
2023-02-11T00:03:57.899Z,48.80
2023-02-11T00:06:28.066Z,43.37
2023-02-11T00:08:55.455Z,42.93
2023-02-11T00:11:33.960Z,39.73
2023-02-11T00:14:04.707Z,43.80
2023-02-11T00:16:32.591Z,44.10
2023-02-11T00:19:01.155Z,41.10
2023-02-11T00:21:28.929Z,43.33
2023-02-11T00:23:57.377Z,37.60
2023-02-11T00:26:31.242Z,43.70
2023-02-11T00:28:59.062Z,38.77
2023-02-11T00:31:26.633Z,43.53
2023-02-11T00:33:54.360Z,42.97
2023-02-11T00:36:27.713Z,38.80
2023-02-11T00:38:56.423Z,39.47
2023-02-11T00:41:23.850Z,37.03
2023-02-11T00:43:51.488Z,40.50
2023-02-11T00:46:18.780Z,48.60
2023-02-11T00:48:46.045Z,40.70
2023-02-11T00:51:13.688Z,43.20
2023-02-11T00:53:41.122Z,44.53
2023-02-11T00:56:08.679Z,40.43
2023-02-11T00:58:36.529Z,37.40
2023-02-11T01:01:04.574Z,38.20
2023-02-11T01:03:32.053Z,36.80
2023-02-11T01:05:59.420Z,38.23
2023-02-11T01:08:26.741Z,37.50
2023-02-11T01:11:00.315Z,42.90
2023-02-11T01:13:28.623Z,34.60
2023-02-11T01:15:56.491Z,35.60
2023-02-11T01:18:23.924Z,39.90
2023-02-11T01:20:52.659Z,33.93
2023-02-11T01:23:20.360Z,37.37
2023-02-11T01:25:47.910Z,41.30
2023-02-11T01:28:25.116Z,40.83
2023-02-11T01:30:52.665Z,38.83
2023-02-11T01:33:20.634Z,38.60
2023-02-11T01:35:48.148Z,37.37
2023-02-11T01:38:22.229Z,32.00
2023-02-11T01:40:52.765Z,49.33
2023-02-11T01:43:20.497Z,35.10
2023-02-11T01:45:47.756Z,37.97
2023-02-11T01:48:30.591Z,36.00
2023-02-11T01:51:09.299Z,38.97
2023-02-11T01:53:56.586Z,31.50
2023-02-11T01:56:44.041Z,33.60
2023-02-11T01:59:18.859Z,36.03
2023-02-11T02:01:52.598Z,41.47
2023-02-11T02:04:21.115Z,40.87
2023-02-11T02:06:56.302Z,33.27
2023-02-11T02:09:30.301Z,37.27
2023-02-11T02:11:57.646Z,45.47
2023-02-11T02:14:26.561Z,34.17
2023-02-11T02:16:53.858Z,34.00
2023-02-11T02:20:04.214Z,31.37
2023-02-11T02:23:05.672Z,36.30
2023-02-11T02:26:00.058Z,38.20
2023-02-11T02:28:41.925Z,37.27
2023-02-11T02:31:17.431Z,35.40
2023-02-11T02:34:02.778Z,35.47
2023-02-11T02:36:43.610Z,33.83
2023-02-11T02:39:24.788Z,32.40
2023-02-11T02:41:53.541Z,28.30
2023-02-11T02:44:21.440Z,30.10
2023-02-11T02:46:48.877Z,34.27
2023-02-11T02:49:17.411Z,43.07
2023-02-11T02:51:58.264Z,30.23
2023-02-11T02:55:01.464Z,36.80
2023-02-11T02:58:02.957Z,36.50
2023-02-11T03:01:14.106Z,25.47
2023-02-11T03:03:53.383Z,28.43
2023-02-11T03:06:44.220Z,31.77
2023-02-11T03:09:27.465Z,32.67
2023-02-11T03:11:54.858Z,35.47
2023-02-11T03:14:26.737Z,43.87
2023-02-11T03:16:57.011Z,40.50
2023-02-11T03:19:34.246Z,35.83
2023-02-11T03:22:06.474Z,40.33
2023-02-11T03:24:37.824Z,52.93
2023-02-11T03:27:28.426Z,37.70
2023-02-11T03:30:11.623Z,35.13
2023-02-11T03:32:54.163Z,36.83
2023-02-11T03:35:41.404Z,29.53
2023-02-11T03:38:36.242Z,35.77
2023-02-11T03:41:07.145Z,29.17
2023-02-11T03:43:49.067Z,25.80
2023-02-11T03:46:20.112Z,34.80
2023-02-11T03:48:56.475Z,29.40
2023-02-11T03:51:24.987Z,31.20
2023-02-11T03:53:55.480Z,25.07
2023-02-11T03:56:27.375Z,30.93
2023-02-11T03:58:54.713Z,29.67
2023-02-11T04:01:22.248Z,33.73
2023-02-11T04:03:49.579Z,26.50
2023-02-11T04:06:16.841Z,30.93
2023-02-11T04:08:44.087Z,23.97
2023-02-11T04:11:11.363Z,28.60
2023-02-11T04:13:38.648Z,29.30
2023-02-11T04:16:05.824Z,31.53
2023-02-11T04:18:33.095Z,24.37
2023-02-11T04:21:00.580Z,31.93
2023-02-11T04:23:27.971Z,33.87
2023-02-11T04:25:55.260Z,32.70
2023-02-11T04:28:22.613Z,32.17
2023-02-11T04:30:51.618Z,31.77
2023-02-11T04:33:18.925Z,26.07
2023-02-11T04:35:46.184Z,40.07
2023-02-11T04:38:13.708Z,29.00
2023-02-11T04:40:41.303Z,34.97
2023-02-11T04:43:08.985Z,22.20
2023-02-11T04:45:36.425Z,29.80
2023-02-11T04:48:04.322Z,25.57
2023-02-11T04:50:31.681Z,29.63
2023-02-11T04:52:59.056Z,36.27
2023-02-11T04:55:26.496Z,32.53
2023-02-11T04:57:55.232Z,29.57
2023-02-11T05:00:22.679Z,29.30
2023-02-11T05:02:49.968Z,34.33
2023-02-11T05:05:17.280Z,35.30
2023-02-11T05:07:44.668Z,31.70
2023-02-11T05:10:11.983Z,29.13
2023-02-11T05:12:39.337Z,21.77
2023-02-11T05:15:06.766Z,29.63
2023-02-11T05:17:34.103Z,23.50
2023-02-11T05:20:01.365Z,33.70
2023-02-11T05:22:28.687Z,27.87
2023-02-11T05:24:55.969Z,31.30
2023-02-11T05:27:23.242Z,32.77
2023-02-11T05:29:50.535Z,27.23
2023-02-11T05:32:17.799Z,32.47
2023-02-11T05:34:45.196Z,32.33
2023-02-11T05:37:12.512Z,32.40
2023-02-11T05:39:39.825Z,33.00
2023-02-11T05:42:07.116Z,34.17
2023-02-11T05:44:34.395Z,32.57
2023-02-11T05:47:01.655Z,27.40
2023-02-11T05:49:28.928Z,25.07
2023-02-11T05:51:56.230Z,38.10
2023-02-11T05:54:23.631Z,26.43
2023-02-11T05:56:51.085Z,34.47
2023-02-11T05:59:18.452Z,31.40
2023-02-11T06:01:45.798Z,30.87
2023-02-11T06:04:13.079Z,29.43
2023-02-11T06:06:40.410Z,31.13
2023-02-11T06:09:07.674Z,36.47
2023-02-11T06:11:35.020Z,30.17
2023-02-11T06:14:02.585Z,25.27
2023-02-11T06:16:29.605Z,29.73
2023-02-11T06:18:57.053Z,36.30
2023-02-11T06:21:33.502Z,25.97
2023-02-11T06:24:08.291Z,30.87
2023-02-11T06:26:35.591Z,24.87
2023-02-11T06:29:02.864Z,27.83
2023-02-11T06:31:30.232Z,26.83
2023-02-11T06:33:59.209Z,28.27
2023-02-11T06:36:26.501Z,28.83
2023-02-11T06:38:53.931Z,26.20
2023-02-11T06:41:21.411Z,25.23
2023-02-11T06:43:49.240Z,26.80
2023-02-11T06:46:16.724Z,29.20
2023-02-11T06:48:45.058Z,33.93
2023-02-11T06:51:14.237Z,24.30
2023-02-11T06:53:45.007Z,34.60
2023-02-11T06:56:18.904Z,24.50
2023-02-11T06:58:47.146Z,28.87
2023-02-11T07:01:16.373Z,34.57
2023-02-11T07:03:45.268Z,34.67
2023-02-11T07:06:16.725Z,31.87
2023-02-11T07:08:45.911Z,31.60
2023-02-11T07:11:17.573Z,34.50
2023-02-11T07:13:45.024Z,30.57
2023-02-11T07:16:15.787Z,32.13
2023-02-11T07:18:43.429Z,32.03
2023-02-11T07:21:14.207Z,37.10
2023-02-11T07:23:41.780Z,37.97
2023-02-11T07:26:15.884Z,34.97
2023-02-11T07:28:43.812Z,31.87
2023-02-11T07:31:21.271Z,29.87
2023-02-11T07:33:48.718Z,28.20
2023-02-11T07:36:16.755Z,29.33
2023-02-11T07:38:44.834Z,30.30
2023-02-11T07:41:15.505Z,32.70
2023-02-11T07:43:43.420Z,34.20
2023-02-11T07:46:20.338Z,29.60
2023-02-11T07:48:47.904Z,33.50
2023-02-11T07:51:22.360Z,26.70
2023-02-11T07:53:50.328Z,32.93
2023-02-11T07:56:19.315Z,29.37
2023-02-11T07:58:46.549Z,25.50
2023-02-11T08:01:19.475Z,28.33
2023-02-11T08:03:46.822Z,28.80
2023-02-11T08:06:20.396Z,28.97
2023-02-11T08:08:47.854Z,31.70
2023-02-11T08:11:24.138Z,26.17
2023-02-11T08:13:51.814Z,23.73
2023-02-11T08:16:23.747Z,24.77
2023-02-11T08:18:52.005Z,28.37
2023-02-11T08:21:20.342Z,29.53
2023-02-11T08:23:48.084Z,30.53
2023-02-11T08:26:18.979Z,29.07
2023-02-11T08:28:48.115Z,28.23
2023-02-11T08:31:22.044Z,24.97
2023-02-11T08:33:49.945Z,30.70
2023-02-11T08:36:21.113Z,27.77
2023-02-11T08:38:48.450Z,27.40
2023-02-11T08:41:16.266Z,26.90
2023-02-11T08:43:44.980Z,33.63
2023-02-11T08:46:17.818Z,26.87
2023-02-11T08:48:46.156Z,27.17
2023-02-11T08:51:31.561Z,37.27
2023-02-11T08:53:59.301Z,27.90
2023-02-11T08:56:26.957Z,27.37
2023-02-11T08:58:54.618Z,28.87
2023-02-11T09:01:28.697Z,29.77
2023-02-11T09:03:57.238Z,29.37
2023-02-11T09:06:25.548Z,33.47
2023-02-11T09:08:56.006Z,30.10
2023-02-11T09:11:32.451Z,28.40
2023-02-11T09:14:00.008Z,30.77
2023-02-11T09:16:30.869Z,31.30
2023-02-11T09:19:00.530Z,31.00
2023-02-11T09:21:29.045Z,31.80
2023-02-11T09:23:56.770Z,36.53
2023-02-11T09:26:27.985Z,34.03
2023-02-11T09:28:55.677Z,29.00
2023-02-11T09:31:26.873Z,32.30
2023-02-11T09:33:58.464Z,25.40
2023-02-11T09:36:33.344Z,30.53
2023-02-11T09:39:02.692Z,26.00
2023-02-11T09:41:40.873Z,28.87
2023-02-11T09:44:18.639Z,32.30
2023-02-11T09:46:53.696Z,25.80
2023-02-11T09:49:31.340Z,29.63
2023-02-11T09:52:20.112Z,25.80
2023-02-11T09:54:59.016Z,42.00
2023-02-11T09:57:33.801Z,41.17
2023-02-11T10:00:02.508Z,31.17
2023-02-11T10:02:53.981Z,37.57
2023-02-11T10:05:41.858Z,39.67
2023-02-11T10:08:22.082Z,31.03
2023-02-11T10:11:31.251Z,32.40
2023-02-11T10:14:43.273Z,31.20
2023-02-11T10:17:52.385Z,34.23
2023-02-11T10:20:40.724Z,35.13
2023-02-11T10:23:37.181Z,37.60
2023-02-11T10:26:15.016Z,63.53
2023-02-11T10:28:46.620Z,37.90
2023-02-11T10:31:23.205Z,28.77
2023-02-11T10:34:00.724Z,33.07
2023-02-11T10:36:36.320Z,36.87
2023-02-11T10:39:22.834Z,31.30
2023-02-11T10:41:59.954Z,33.80
2023-02-11T10:44:35.415Z,35.57
2023-02-11T10:47:10.862Z,33.93
2023-02-11T10:49:44.246Z,38.77
2023-02-11T10:52:30.449Z,28.90
2023-02-11T10:55:01.900Z,33.90
2023-02-11T10:57:51.158Z,32.83
2023-02-11T11:00:18.062Z,64.27
2023-02-11T11:02:46.747Z,44.47
2023-02-11T11:05:23.734Z,32.27
2023-02-11T11:07:57.694Z,37.60
2023-02-11T11:10:45.160Z,36.40
2023-02-11T11:13:31.331Z,32.37
2023-02-11T11:16:13.420Z,39.10
2023-02-11T11:18:43.808Z,32.50
2023-02-11T11:21:26.981Z,30.83
2023-02-11T11:24:01.119Z,33.33
2023-02-11T11:26:44.229Z,32.87
2023-02-11T11:29:21.709Z,34.60
2023-02-11T11:32:01.327Z,31.70
2023-02-11T11:34:38.343Z,31.60
2023-02-11T11:37:51.764Z,29.27
2023-02-11T11:40:34.131Z,25.50
2023-02-11T11:43:15.042Z,32.53
2023-02-11T11:45:58.314Z,28.77
2023-02-11T11:48:42.207Z,32.07
2023-02-11T11:51:13.353Z,27.07
2023-02-11T11:53:58.254Z,34.93
2023-02-11T11:56:30.025Z,32.50
2023-02-11T11:58:59.114Z,35.20
2023-02-11T12:01:50.959Z,31.97
2023-02-11T12:04:34.024Z,29.53
2023-02-11T12:07:29.674Z,34.80
2023-02-11T12:10:14.853Z,34.33
2023-02-11T12:12:59.549Z,34.23
2023-02-11T12:16:00.886Z,29.70
2023-02-11T12:19:06.998Z,32.57
2023-02-11T12:21:50.326Z,29.40
2023-02-11T12:24:49.760Z,31.00
2023-02-11T12:28:01.891Z,30.27
2023-02-11T12:31:06.038Z,34.50
2023-02-11T12:34:10.251Z,42.93
2023-02-11T12:37:17.561Z,29.57
2023-02-11T12:40:01.595Z,29.00
2023-02-11T12:43:20.207Z,27.73
2023-02-11T12:46:10.882Z,32.20
2023-02-11T12:48:58.992Z,31.50
2023-02-11T12:51:57.680Z,29.63
2023-02-11T12:54:33.274Z,33.40
2023-02-11T12:57:27.020Z,34.57
2023-02-11T13:01:04.511Z,40.17
2023-02-11T13:03:43.555Z,29.63
2023-02-11T13:06:17.846Z,26.70
2023-02-11T13:08:48.954Z,28.50
2023-02-11T13:11:24.055Z,31.93
2023-02-11T13:14:23.944Z,29.13
2023-02-11T13:16:51.447Z,30.50
2023-02-11T13:19:46.236Z,31.10
2023-02-11T13:22:37.139Z,42.63
2023-02-11T13:25:25.566Z,38.70
2023-02-11T13:28:09.298Z,30.13
2023-02-11T13:30:40.828Z,32.43
2023-02-11T13:33:18.461Z,36.30
2023-02-11T13:36:08.877Z,32.90
2023-02-11T13:38:36.790Z,28.20
2023-02-11T13:41:23.495Z,33.07
2023-02-11T13:44:08.879Z,27.33
2023-02-11T13:47:06.628Z,32.40
2023-02-11T13:49:41.812Z,15.50
2023-02-11T13:52:34.988Z,14.93
2023-02-11T13:55:23.377Z,16.47
2023-02-11T13:58:05.562Z,17.63
2023-02-11T14:00:35.590Z,16.80
2023-02-11T14:03:29.837Z,18.83
2023-02-11T14:06:27.397Z,14.53
2023-02-11T14:09:09.816Z,19.73
2023-02-11T14:11:45.406Z,18.70
2023-02-11T14:14:24.435Z,14.47
2023-02-11T14:17:03.183Z,17.60
2023-02-11T14:19:41.638Z,14.43
2023-02-11T14:22:27.738Z,16.97
2023-02-11T14:24:59.984Z,17.20
2023-02-11T14:27:55.399Z,19.70
2023-02-11T14:30:46.923Z,17.63
2023-02-11T14:34:08.104Z,20.60
2023-02-11T14:36:52.676Z,16.90
2023-02-11T14:39:45.162Z,15.33
2023-02-11T14:42:20.851Z,18.17
2023-02-11T14:44:50.843Z,19.80
2023-02-11T14:47:23.013Z,18.37
2023-02-11T14:49:50.674Z,17.10
2023-02-11T14:52:32.261Z,16.80
2023-02-11T14:55:41.276Z,18.40
2023-02-11T14:58:24.203Z,22.17
2023-02-11T15:01:00.828Z,23.93
2023-02-11T15:03:41.299Z,24.33
2023-02-11T15:06:19.562Z,24.07
2023-02-11T15:09:00.960Z,21.20
2023-02-11T15:11:34.728Z,30.10
2023-02-11T15:14:33.653Z,31.13
2023-02-11T15:17:05.734Z,20.50
2023-02-11T15:19:38.265Z,21.97
2023-02-11T15:22:21.321Z,18.33
2023-02-11T15:25:04.916Z,19.37
2023-02-11T15:27:43.050Z,21.70
2023-02-11T15:30:21.656Z,24.17
2023-02-11T15:32:59.573Z,18.60
2023-02-11T15:35:31.168Z,18.43
2023-02-11T15:37:59.699Z,16.43
2023-02-11T15:40:34.948Z,18.90
2023-02-11T15:43:03.768Z,16.80
2023-02-11T15:45:54.430Z,18.13
2023-02-11T15:48:28.961Z,19.70
2023-02-11T15:51:06.055Z,17.50
2023-02-11T15:53:43.343Z,18.03
2023-02-11T15:56:30.598Z,16.47
2023-02-11T15:59:00.319Z,20.03
2023-02-11T16:01:36.913Z,16.57
2023-02-11T16:04:05.494Z,18.40
2023-02-11T16:06:41.107Z,16.07
2023-02-11T16:09:13.671Z,20.87
2023-02-11T16:11:58.969Z,16.77
2023-02-11T16:14:29.484Z,17.97
2023-02-11T16:17:27.852Z,16.30
2023-02-11T16:19:55.373Z,16.70
2023-02-11T16:22:35.270Z,20.37
2023-02-11T16:25:02.588Z,25.27
2023-02-11T16:27:41.305Z,22.23
2023-02-11T16:30:26.738Z,21.57
2023-02-11T16:32:54.499Z,16.13
2023-02-11T16:35:21.701Z,21.60
2023-02-11T16:37:48.653Z,16.70
2023-02-11T16:40:15.859Z,19.47
2023-02-11T16:42:42.787Z,18.90
2023-02-11T16:45:10.007Z,14.17
2023-02-11T16:47:40.960Z,15.13
2023-02-11T16:50:21.249Z,17.13
2023-02-11T16:52:48.718Z,17.77
2023-02-11T16:55:15.765Z,18.30
2023-02-11T16:57:42.660Z,19.20
2023-02-11T17:00:11.681Z,23.03
2023-02-11T17:02:39.370Z,24.70
2023-02-11T17:05:12.438Z,29.40
2023-02-11T17:07:39.329Z,30.33
2023-02-11T17:10:19.840Z,23.97
2023-02-11T17:12:48.389Z,20.23
2023-02-11T17:15:15.651Z,22.03
2023-02-11T17:17:42.748Z,22.87
2023-02-11T17:20:13.191Z,24.87
2023-02-11T17:22:41.009Z,23.70
2023-02-11T17:25:08.763Z,22.33
2023-02-11T17:27:35.654Z,20.60
2023-02-11T17:30:03.113Z,21.03
2023-02-11T17:32:29.977Z,16.20
2023-02-11T17:34:57.015Z,14.90
2023-02-11T17:37:24.039Z,17.30
2023-02-11T17:39:51.103Z,19.57
2023-02-11T17:42:21.086Z,20.50
2023-02-11T17:44:48.012Z,17.40
2023-02-11T17:47:15.111Z,17.23
2023-02-11T17:49:42.418Z,14.60
2023-02-11T17:52:09.716Z,11.47
2023-02-11T17:54:38.214Z,12.33
2023-02-11T17:57:05.228Z,20.90
2023-02-11T17:59:35.391Z,12.17
2023-02-11T18:02:03.793Z,13.20
2023-02-11T18:04:31.488Z,14.90
2023-02-11T18:06:58.491Z,12.90
2023-02-11T18:09:26.177Z,17.73
2023-02-11T18:11:53.998Z,12.57
2023-02-11T18:14:22.237Z,15.20
2023-02-11T18:16:52.753Z,43.20
2023-02-11T18:19:20.470Z,17.60
2023-02-11T18:21:50.216Z,15.73
2023-02-11T18:24:18.196Z,15.73
2023-02-11T18:26:45.086Z,18.53
2023-02-11T18:29:12.072Z,13.00
2023-02-11T18:31:39.563Z,18.97
2023-02-11T18:34:08.125Z,15.70
2023-02-11T18:36:35.544Z,54.10
2023-02-11T18:39:03.529Z,27.50
2023-02-11T18:41:30.473Z,17.13
2023-02-11T18:43:58.721Z,16.30
2023-02-11T18:46:25.773Z,13.30
2023-02-11T18:48:56.004Z,14.47
2023-02-11T18:51:23.809Z,14.27
2023-02-11T18:53:50.769Z,11.67
2023-02-11T18:56:22.176Z,15.60
2023-02-11T18:58:49.481Z,16.43
2023-02-11T19:01:20.902Z,14.17
2023-02-11T19:03:48.312Z,11.80
2023-02-11T19:06:26.453Z,15.03
2023-02-11T19:09:00.034Z,12.63
2023-02-11T19:11:47.746Z,9.43
2023-02-11T19:14:31.500Z,29.77
2023-02-11T19:17:01.511Z,17.03
2023-02-11T19:19:31.618Z,15.07
2023-02-11T19:21:59.973Z,17.43
2023-02-11T19:24:29.055Z,10.90
2023-02-11T19:27:00.097Z,11.43
2023-02-11T19:29:28.467Z,13.87
2023-02-11T19:31:57.865Z,16.03
2023-02-11T19:34:24.800Z,12.27
2023-02-11T19:36:51.712Z,13.80
2023-02-11T19:39:18.684Z,12.17
2023-02-11T19:41:45.618Z,13.27
2023-02-11T19:44:14.009Z,12.07
2023-02-11T19:46:41.099Z,12.37
2023-02-11T19:49:09.891Z,9.00
2023-02-11T19:51:39.176Z,10.00
2023-02-11T19:54:07.196Z,9.60
2023-02-11T19:56:35.014Z,13.53
2023-02-11T19:59:04.173Z,9.43
2023-02-11T20:01:31.125Z,10.50
2023-02-11T20:03:58.115Z,10.83
2023-02-11T20:06:28.117Z,12.53
2023-02-11T20:08:58.787Z,9.50
2023-02-11T20:11:31.625Z,10.70
2023-02-11T20:13:59.347Z,11.57
2023-02-11T20:16:45.046Z,10.43
2023-02-11T20:19:21.334Z,13.60
2023-02-11T20:21:52.896Z,8.73
2023-02-11T20:24:20.583Z,10.50
2023-02-11T20:26:48.816Z,13.00
2023-02-11T20:29:18.884Z,9.20
2023-02-11T20:31:46.123Z,11.23
2023-02-11T20:34:13.376Z,10.67
2023-02-11T20:36:40.898Z,59.13
2023-02-11T20:39:09.957Z,119.70
2023-02-11T20:41:39.921Z,41.90
2023-02-11T20:44:10.474Z,19.90
2023-02-11T20:46:40.841Z,12.57
2023-02-11T20:49:10.764Z,9.20
2023-02-11T20:51:37.866Z,10.20
2023-02-11T20:54:06.163Z,9.90
2023-02-11T20:56:36.754Z,10.00
2023-02-11T20:59:05.226Z,12.27
2023-02-11T21:01:36.236Z,11.80
2023-02-11T21:04:08.075Z,10.27
2023-02-11T21:06:39.656Z,9.67
2023-02-11T21:09:09.295Z,9.77
2023-02-11T21:11:36.446Z,10.33
2023-02-11T21:14:03.780Z,9.97
2023-02-11T21:16:31.497Z,13.80
2023-02-11T21:18:58.567Z,9.63
2023-02-11T21:21:25.460Z,15.67
2023-02-11T21:23:52.641Z,15.20
2023-02-11T21:26:19.715Z,11.17
2023-02-11T21:28:46.703Z,12.50
2023-02-11T21:31:29.499Z,10.97
2023-02-11T21:33:59.366Z,12.43
2023-02-11T21:36:28.298Z,9.87
2023-02-11T21:38:55.224Z,9.73
2023-02-11T21:41:22.781Z,9.10
2023-02-11T21:43:50.915Z,10.97
2023-02-11T21:46:19.816Z,12.27
2023-02-11T21:48:47.369Z,8.87
2023-02-11T21:51:20.692Z,9.67
2023-02-11T21:53:47.746Z,16.93
2023-02-11T21:56:17.524Z,50.20
2023-02-11T21:58:45.312Z,26.43
2023-02-11T22:01:16.226Z,11.97
2023-02-11T22:03:43.514Z,9.50
2023-02-11T22:06:14.804Z,9.33
2023-02-11T22:08:41.777Z,9.40
2023-02-11T22:11:12.142Z,9.37
2023-02-11T22:13:40.290Z,11.00
2023-02-11T22:16:14.543Z,11.30
2023-02-11T22:18:44.540Z,9.47
2023-02-11T22:21:18.710Z,11.37
2023-02-11T22:23:46.229Z,12.43
2023-02-11T22:26:17.508Z,11.50
2023-02-11T22:28:45.578Z,12.03
2023-02-11T22:31:19.273Z,12.60
2023-02-11T22:33:47.045Z,11.23
2023-02-11T22:36:24.398Z,12.87
2023-02-11T22:38:51.708Z,10.87
2023-02-11T22:41:19.813Z,10.50
2023-02-11T22:43:47.180Z,10.93
2023-02-11T22:46:18.734Z,11.00
2023-02-11T22:48:47.167Z,9.80
2023-02-11T22:51:21.397Z,10.30
2023-02-11T22:53:58.785Z,9.33
2023-02-11T22:56:26.718Z,9.13
2023-02-11T22:58:57.760Z,11.57
2023-02-11T23:01:25.224Z,9.00
2023-02-11T23:03:52.268Z,10.07
2023-02-11T23:06:19.563Z,10.60
2023-02-11T23:08:46.862Z,11.60
2023-02-11T23:11:18.962Z,9.90
2023-02-11T23:13:48.641Z,10.80
2023-02-11T23:16:29.010Z,8.03
2023-02-11T23:18:55.986Z,9.87
2023-02-11T23:21:27.701Z,7.80
2023-02-11T23:24:03.657Z,9.33
2023-02-11T23:26:30.801Z,8.63
2023-02-11T23:28:59.535Z,9.33
2023-02-11T23:31:34.158Z,7.87
2023-02-11T23:34:01.988Z,8.30
2023-02-11T23:36:29.351Z,11.10
2023-02-11T23:38:56.366Z,9.13
2023-02-11T23:41:23.883Z,9.20
2023-02-11T23:43:53.297Z,9.97
2023-02-11T23:46:22.127Z,10.43
2023-02-11T23:48:51.516Z,11.37
2023-02-11T23:51:19.146Z,9.53
2023-02-11T23:53:46.444Z,9.67
2023-02-11T23:56:23.720Z,10.90
2023-02-11T23:58:54.808Z,10.43
